EW0791 Weather Reports


Display with metric or nautical units.
time (UTC)temp
F
wind
direction
speed
MPH
gust
MPH
rain 1hr
in
rain 24hr
in
rain mn
in
humidity
%
barometer
mb
20211207081821 37 267 2.0 11.0 0.00 0.18 0.00 60 1011.4
20211207080320 38 297 3.0 9.0 0.00 0.18 0.00 59 1011.0
20211207074847 38 294 4.0 14.0 0.00 0.18 0.00 58 1010.8
20211207073317 38 281 3.0 13.0 0.00 0.18 0.00 60 1010.5
20211207071840 38 322 4.0 11.0 0.00 0.18 0.00 59 1010.1
20211207070328 39 292 6.0 14.0 0.00 0.18 0.00 60 1009.7
20211207064827 39 307 4.0 15.0 0.00 0.18 0.00 61 1009.0
20211207063325 39 217 4.0 12.0 0.00 0.18 0.00 61 1008.6
20211207061846 40 286 6.0 22.0 0.00 0.18 0.00 61 1008.3
20211207060347 41 308 5.0 17.0 0.00 0.18 0.00 62 1008.1
20211207054846 41 282 5.0 14.0 0.00 0.18 0.00 66 1007.4
20211207053347 42 307 8.0 14.0 0.00 0.18 0.00 65 1007.3
20211207051816 42 237 3.0 9.0 0.00 0.18 0.00 69 1007.1
20211207050315 43 337 7.0 20.0 0.00 0.18 0.00 65 1006.7
20211207044838 43 270 4.0 13.0 0.00 0.18 0.18 73 1006.6
20211207043340 43 296 3.0 7.0 0.00 0.18 0.18 78 1005.6
20211207041839 43 262 3.0 6.0 0.00 0.18 0.18 79 1005.9
20211207040339 44 297 3.0 10.0 0.00 0.18 0.18 79 1005.4
20211207034827 45 290 8.0 17.0 0.00 0.18 0.18 76 1004.8
20211207033346 46 328 6.0 13.0 0.00 0.18 0.18 79 1004.3
20211207031845 47 283 6.0 15.0 0.04 0.18 0.18 81 1004.2
20211207030336 48 228 5.0 14.0 0.05 0.18 0.18 84 1003.8
20211207024836 50 332 6.0 13.0 0.05 0.18 0.18 86 1002.7
20211207023339 51 175 7.0 18.0 0.06 0.18 0.18 86 1001.5
20211207021839 57 196 7.0 12.0 0.05 0.14 0.14 92 999.4
20211207020340 57 264 5.0 17.0 0.04 0.13 0.13 91 999.7
20211207014840 57 172 7.0 19.0 0.04 0.13 0.13 90 999.7
20211207013315 57 77 6.0 12.0 0.02 0.11 0.11 89 999.7
20211207011838 58 225 5.0 14.0 0.00 0.09 0.09 87 999.8
20211207010338 58 200 8.0 18.0 0.00 0.09 0.09 85 999.8
20211207004826 58 221 5.0 15.0 0.00 0.09 0.09 84 1000.2
20211207003324 59 70 7.0 13.0 0.00 0.09 0.09 84 1000.5
20211207001824 58 208 6.0 16.0 0.00 0.09 0.09 84 1000.8
20211207000324 59 169 6.0 22.0 0.00 0.09 0.09 82 1001.1
20211206234823 59 238 9.0 18.0 0.00 0.09 0.09 81 1001.2
20211206233325 59 169 8.0 19.0 0.00 0.09 0.09 81 1001.7
20211206231826 58 193 9.0 20.0 0.00 0.09 0.09 80 1001.8
20211206230333 58 158 9.0 18.0 0.00 0.09 0.09 80 1001.6
20211206224836 58 180 6.0 17.0 0.00 0.09 0.09 81 1001.8
20211206223340 58 290 6.0 17.0 0.00 0.09 0.09 80 1002.3
20211206221828 58 203 8.0 16.0 0.00 0.09 0.09 81 1002.3
20211206220328 58 244 7.0 16.0 0.00 0.09 0.09 81 1002.6
20211206214844 58 197 4.0 14.0 0.00 0.09 0.09 81 1002.8
20211206213343 58 243 6.0 19.0 0.00 0.09 0.09 81 1003.2
20211206211848 58 195 4.0 15.0 0.00 0.09 0.09 81 1003.6
20211206210349 58 197 6.0 18.0 0.00 0.09 0.09 81 1003.7
20211206204823 59 207 3.0 14.0 0.00 0.09 0.09 80 1004.2
20211206203323 59 152 8.0 17.0 0.00 0.09 0.09 80 1004.7
20211206201823 59 275 5.0 18.0 0.00 0.09 0.09 81 1005.0
20211206200323 59 184 10.0 19.0 0.00 0.09 0.09 82 1005.1
20211206194823 58 188 8.0 19.0 0.00 0.09 0.09 84 1005.0
20211206193323 57 179 3.0 17.0 0.00 0.09 0.09 86 1005.4
20211206191825 56 247 5.0 13.0 0.00 0.09 0.09 89 1005.7
20211206190339 54 217 3.0 9.0 0.00 0.09 0.09 90 1005.8
20211206184839 52 214 2.0 6.0 0.00 0.09 0.09 94 1006.1
20211206183335 50 185 3.0 8.0 0.00 0.09 0.09 96 1006.8
20211206181836 48 220 3.0 6.0 0.00 0.09 0.09 97 1007.5
20211206180337 47 180 3.0 7.0 0.00 0.09 0.09 97 1008.0
20211206174839 45 200 2.0 5.0 0.00 0.09 0.09 97 1008.2
20211206173317 44 205 1.0 3.0 0.00 0.09 0.09 96 1008.4
20211206171817 43 249 0.0 1.0 0.00 0.09 0.09 96 1008.4
20211206170345 42 188 0.0 2.0 0.00 0.09 0.09 96 1009.0
20211206164849 42 276 0.0 1.0 0.00 0.09 0.09 96 1009.2
20211206163348 41 284 1.0 1.0 0.00 0.09 0.09 96 1009.8
20211206161822 41 252 0.0 1.0 0.00 0.09 0.09 96 1010.2
20211206160323 40 34 0.0 1.0 0.00 0.09 0.09 96 1010.9
20211206154826 40 219 0.0 2.0 0.00 0.09 0.09 96 1011.6
20211206153347 40 295 0.0 1.0 0.00 0.09 0.09 96 1012.2
20211206151823 39 313 1.0 2.0 0.00 0.09 0.09 95 1012.7
20211206150342 39 298 0.0 1.0 0.00 0.09 0.09 95 1012.8
20211206144817 39 303 0.0 1.0 0.00 0.09 0.09 95 1013.2
20211206143316 39 285 1.0 2.0 0.01 0.09 0.09 95 1014.1
20211206141814 39 259 0.0 1.0 0.01 0.09 0.09 95 1014.1
20211206140315 38 277 0.0 3.0 0.01 0.09 0.09 95 1014.9
20211206134844 39 288 1.0 3.0 0.01 0.09 0.09 94 1015.3
20211206133347 39 285 0.0 0.0 0.01 0.08 0.08 94 1015.2
20211206131823 39 285 0.0 1.0 0.03 0.08 0.08 94 1015.7
20211206130332 40 285 0.0 2.0 0.05 0.08 0.08 94 1016.1
20211206124835 40 225 0.0 1.0 0.06 0.08 0.08 94 1016.6
20211206123338 40 174 0.0 1.0 0.06 0.07 0.07 93 1016.8
20211206121839 40 174 0.0 1.0 0.04 0.05 0.05 93 1017.5
20211206120338 41 105 0.0 1.0 0.02 0.03 0.03 92 1017.2
20211206114839 41 104 0.0 1.0 0.01 0.01 0.01 91 1017.9
20211206113341 41 104 0.0 1.0 0.01 0.01 0.01 90 1018.1
20211206111828 41 169 0.0 1.0 0.01 0.01 0.01 89 1018.7
20211206110347 42 180 0.0 1.0 0.01 0.01 0.01 85 1019.4
20211206104846 43 184 0.0 0.0 0.00 0.00 0.00 80 1019.9
20211206103322 43 66 0.0 1.0 0.00 0.00 0.00 78 1019.9
20211206101821 43 154 0.0 3.0 0.00 0.00 0.00 77 1020.4
20211206100331 43 108 1.0 3.0 0.00 0.00 0.00 77 1020.6
20211206094834 42 109 1.0 2.0 0.00 0.00 0.00 76 1020.6
20211206093338 42 134 2.0 4.0 0.00 0.00 0.00 76 1021.0
20211206091840 42 120 0.0 7.0 0.00 0.00 0.00 76 1021.2
20211206090332 41 86 2.0 5.0 0.00 0.00 0.00 75 1021.5
20211206084834 41 127 1.0 4.0 0.00 0.00 0.00 73 1022.4
20211206083314 40 90 0.0 4.0 0.00 0.00 0.00 73 1022.6